sensor_id;sensor_type;location;lat;lon;timestamp;temperature;humidity
40996;DHT22;26723;57.478;12.066;2022-07-17T00:02:08;13.70;99.90
40996;DHT22;26723;57.478;12.066;2022-07-17T00:05:19;13.70;99.90
40996;DHT22;26723;57.478;12.066;2022-07-17T00:08:28;13.70;99.90
40996;DHT22;26723;57.478;12.066;2022-07-17T00:11:38;13.70;99.90
40996;DHT22;26723;57.478;12.066;2022-07-17T00:14:46;13.60;99.90
40996;DHT22;26723;57.478;12.066;2022-07-17T00:17:54;13.60;99.90
40996;DHT22;26723;57.478;12.066;2022-07-17T00:21:04;13.50;99.90
40996;DHT22;26723;57.478;12.066;2022-07-17T00:24:12;13.50;99.90
40996;DHT22;26723;57.478;12.066;2022-07-17T00:27:26;13.40;99.90
40996;DHT22;26723;57.478;12.066;2022-07-17T00:30:35;13.50;99.90
40996;DHT22;26723;57.478;12.066;2022-07-17T00:33:45;13.50;99.90
40996;DHT22;26723;57.478;12.066;2022-07-17T00:36:55;13.40;99.90
40996;DHT22;26723;57.478;12.066;2022-07-17T00:40:04;13.30;99.90
40996;DHT22;26723;57.478;12.066;2022-07-17T00:43:12;13.40;99.90
40996;DHT22;26723;57.478;12.066;2022-07-17T00:46:20;13.50;99.90
40996;DHT22;26723;57.478;12.066;2022-07-17T00:49:29;13.30;99.90
40996;DHT22;26723;57.478;12.066;2022-07-17T00:52:38;13.30;99.90
40996;DHT22;26723;57.478;12.066;2022-07-17T00:55:48;13.20;99.90
40996;DHT22;26723;57.478;12.066;2022-07-17T00:58:56;13.20;99.90
40996;DHT22;26723;57.478;12.066;2022-07-17T01:02:06;13.20;99.90
40996;DHT22;26723;57.478;12.066;2022-07-17T01:05:15;13.20;99.90
40996;DHT22;26723;57.478;12.066;2022-07-17T01:08:28;13.20;99.90
40996;DHT22;26723;57.478;12.066;2022-07-17T01:11:37;13.20;99.90
40996;DHT22;26723;57.478;12.066;2022-07-17T01:14:45;13.20;99.90
40996;DHT22;26723;57.478;12.066;2022-07-17T01:17:53;13.20;99.90
40996;DHT22;26723;57.478;12.066;2022-07-17T01:21:06;13.20;99.90
40996;DHT22;26723;57.478;12.066;2022-07-17T01:24:15;13.20;99.90
40996;DHT22;26723;57.478;12.066;2022-07-17T01:27:24;13.20;99.90
40996;DHT22;26723;57.478;12.066;2022-07-17T01:30:33;13.20;99.90
40996;DHT22;26723;57.478;12.066;2022-07-17T01:33:42;13.10;99.90
40996;DHT22;26723;57.478;12.066;2022-07-17T01:36:52;13.00;99.90
40996;DHT22;26723;57.478;12.066;2022-07-17T01:40:02;13.00;99.90
40996;DHT22;26723;57.478;12.066;2022-07-17T01:43:11;13.00;99.90
40996;DHT22;26723;57.478;12.066;2022-07-17T01:46:19;12.90;99.90
40996;DHT22;26723;57.478;12.066;2022-07-17T01:49:28;12.90;99.90
40996;DHT22;26723;57.478;12.066;2022-07-17T01:52:39;12.80;99.90
40996;DHT22;26723;57.478;12.066;2022-07-17T01:55:48;12.90;99.90
40996;DHT22;26723;57.478;12.066;2022-07-17T01:58:56;12.90;99.90
40996;DHT22;26723;57.478;12.066;2022-07-17T02:02:06;13.00;99.90
40996;DHT22;26723;57.478;12.066;2022-07-17T02:05:15;13.10;99.90
40996;DHT22;26723;57.478;12.066;2022-07-17T02:08:24;13.10;99.90
40996;DHT22;26723;57.478;12.066;2022-07-17T02:11:32;13.00;99.90
40996;DHT22;26723;57.478;12.066;2022-07-17T02:14:41;13.00;99.90
40996;DHT22;26723;57.478;12.066;2022-07-17T02:17:49;12.90;99.90
40996;DHT22;26723;57.478;12.066;2022-07-17T02:20:58;12.90;99.90
40996;DHT22;26723;57.478;12.066;2022-07-17T02:24:07;12.80;99.90
40996;DHT22;26723;57.478;12.066;2022-07-17T02:27:16;12.70;99.90
40996;DHT22;26723;57.478;12.066;2022-07-17T02:30:24;12.80;99.90
40996;DHT22;26723;57.478;12.066;2022-07-17T02:33:32;13.00;99.90
40996;DHT22;26723;57.478;12.066;2022-07-17T02:36:40;13.20;99.90
40996;DHT22;26723;57.478;12.066;2022-07-17T02:39:50;13.20;99.90
40996;DHT22;26723;57.478;12.066;2022-07-17T02:43:00;13.30;99.90
40996;DHT22;26723;57.478;12.066;2022-07-17T02:46:09;13.40;99.90
40996;DHT22;26723;57.478;12.066;2022-07-17T02:49:17;13.70;99.90
40996;DHT22;26723;57.478;12.066;2022-07-17T02:52:25;13.90;99.90
40996;DHT22;26723;57.478;12.066;2022-07-17T02:55:35;13.90;99.90
40996;DHT22;26723;57.478;12.066;2022-07-17T02:58:43;13.90;99.90
40996;DHT22;26723;57.478;12.066;2022-07-17T03:01:51;13.90;99.90
40996;DHT22;26723;57.478;12.066;2022-07-17T03:04:59;13.90;99.90
40996;DHT22;26723;57.478;12.066;2022-07-17T03:08:08;14.00;99.90
40996;DHT22;26723;57.478;12.066;2022-07-17T03:11:17;14.00;99.90
40996;DHT22;26723;57.478;12.066;2022-07-17T03:14:26;14.00;99.90
40996;DHT22;26723;57.478;12.066;2022-07-17T03:17:34;14.10;99.90
40996;DHT22;26723;57.478;12.066;2022-07-17T03:20:42;14.10;99.90
40996;DHT22;26723;57.478;12.066;2022-07-17T03:23:51;14.10;99.90
40996;DHT22;26723;57.478;12.066;2022-07-17T03:27:00;14.10;99.90
40996;DHT22;26723;57.478;12.066;2022-07-17T03:30:09;14.10;99.90
40996;DHT22;26723;57.478;12.066;2022-07-17T03:33:17;14.20;99.90
40996;DHT22;26723;57.478;12.066;2022-07-17T03:36:25;14.30;99.90
40996;DHT22;26723;57.478;12.066;2022-07-17T03:39:34;14.30;99.90
40996;DHT22;26723;57.478;12.066;2022-07-17T03:42:43;14.30;99.90
40996;DHT22;26723;57.478;12.066;2022-07-17T03:45:52;14.40;99.90
40996;DHT22;26723;57.478;12.066;2022-07-17T03:49:01;14.40;99.90
40996;DHT22;26723;57.478;12.066;2022-07-17T03:52:09;14.40;99.90
40996;DHT22;26723;57.478;12.066;2022-07-17T03:55:17;14.50;99.90
40996;DHT22;26723;57.478;12.066;2022-07-17T03:58:27;14.50;99.90
40996;DHT22;26723;57.478;12.066;2022-07-17T04:01:35;14.60;99.90
40996;DHT22;26723;57.478;12.066;2022-07-17T04:04:43;14.60;99.90
40996;DHT22;26723;57.478;12.066;2022-07-17T04:07:51;14.70;99.90
40996;DHT22;26723;57.478;12.066;2022-07-17T04:11:00;14.70;99.90
40996;DHT22;26723;57.478;12.066;2022-07-17T04:14:17;14.80;99.90
40996;DHT22;26723;57.478;12.066;2022-07-17T04:17:25;14.90;99.90
40996;DHT22;26723;57.478;12.066;2022-07-17T04:20:33;15.00;99.90
40996;DHT22;26723;57.478;12.066;2022-07-17T04:23:42;15.10;99.90
40996;DHT22;26723;57.478;12.066;2022-07-17T04:26:50;15.20;99.90
40996;DHT22;26723;57.478;12.066;2022-07-17T04:29:59;15.30;99.90
40996;DHT22;26723;57.478;12.066;2022-07-17T04:33:08;15.40;99.90
40996;DHT22;26723;57.478;12.066;2022-07-17T04:36:16;15.60;99.90
40996;DHT22;26723;57.478;12.066;2022-07-17T04:39:25;15.70;99.90
40996;DHT22;26723;57.478;12.066;2022-07-17T04:42:33;15.70;99.90
40996;DHT22;26723;57.478;12.066;2022-07-17T04:45:43;15.90;99.90
40996;DHT22;26723;57.478;12.066;2022-07-17T04:48:51;16.00;99.90
40996;DHT22;26723;57.478;12.066;2022-07-17T04:51:59;16.10;99.90
40996;DHT22;26723;57.478;12.066;2022-07-17T04:55:08;16.30;99.90
40996;DHT22;26723;57.478;12.066;2022-07-17T04:58:16;16.40;99.90
40996;DHT22;26723;57.478;12.066;2022-07-17T05:01:26;16.50;99.90
40996;DHT22;26723;57.478;12.066;2022-07-17T05:04:35;16.70;99.90
40996;DHT22;26723;57.478;12.066;2022-07-17T05:07:43;16.80;99.90
40996;DHT22;26723;57.478;12.066;2022-07-17T05:10:52;17.00;99.90
40996;DHT22;26723;57.478;12.066;2022-07-17T05:14:00;17.20;99.90
40996;DHT22;26723;57.478;12.066;2022-07-17T05:17:10;17.30;99.90
40996;DHT22;26723;57.478;12.066;2022-07-17T05:20:19;17.40;99.90
40996;DHT22;26723;57.478;12.066;2022-07-17T05:23:27;17.50;99.90
40996;DHT22;26723;57.478;12.066;2022-07-17T05:26:35;17.60;99.90
40996;DHT22;26723;57.478;12.066;2022-07-17T05:29:43;17.70;99.90
40996;DHT22;26723;57.478;12.066;2022-07-17T05:32:53;17.70;99.90
40996;DHT22;26723;57.478;12.066;2022-07-17T05:36:01;17.70;99.90
40996;DHT22;26723;57.478;12.066;2022-07-17T05:39:10;17.70;99.90
40996;DHT22;26723;57.478;12.066;2022-07-17T05:42:18;17.60;99.90
40996;DHT22;26723;57.478;12.066;2022-07-17T05:45:26;17.60;99.90
40996;DHT22;26723;57.478;12.066;2022-07-17T05:48:35;17.60;99.90
40996;DHT22;26723;57.478;12.066;2022-07-17T05:51:44;17.60;99.90
40996;DHT22;26723;57.478;12.066;2022-07-17T05:54:52;17.70;99.90
40996;DHT22;26723;57.478;12.066;2022-07-17T05:58:00;17.80;99.90
40996;DHT22;26723;57.478;12.066;2022-07-17T06:01:08;17.90;99.90
40996;DHT22;26723;57.478;12.066;2022-07-17T06:04:18;17.90;99.90
40996;DHT22;26723;57.478;12.066;2022-07-17T06:07:26;17.90;99.90
40996;DHT22;26723;57.478;12.066;2022-07-17T06:10:34;17.80;99.90
40996;DHT22;26723;57.478;12.066;2022-07-17T06:13:44;18.00;99.90
40996;DHT22;26723;57.478;12.066;2022-07-17T06:16:53;18.00;99.90
40996;DHT22;26723;57.478;12.066;2022-07-17T06:20:03;18.10;99.90
40996;DHT22;26723;57.478;12.066;2022-07-17T06:23:12;18.30;99.90
40996;DHT22;26723;57.478;12.066;2022-07-17T06:26:20;18.70;99.90
40996;DHT22;26723;57.478;12.066;2022-07-17T06:29:28;19.20;99.90
40996;DHT22;26723;57.478;12.066;2022-07-17T06:32:37;19.90;99.90
40996;DHT22;26723;57.478;12.066;2022-07-17T06:35:46;20.70;99.90
40996;DHT22;26723;57.478;12.066;2022-07-17T06:38:54;22.00;99.90
40996;DHT22;26723;57.478;12.066;2022-07-17T06:42:03;21.80;99.90
40996;DHT22;26723;57.478;12.066;2022-07-17T06:45:11;21.60;99.90
40996;DHT22;26723;57.478;12.066;2022-07-17T06:48:20;21.60;99.90
40996;DHT22;26723;57.478;12.066;2022-07-17T06:51:30;21.20;99.90
40996;DHT22;26723;57.478;12.066;2022-07-17T06:54:38;20.60;99.90
40996;DHT22;26723;57.478;12.066;2022-07-17T06:57:46;20.60;99.90
40996;DHT22;26723;57.478;12.066;2022-07-17T07:00:54;20.70;99.90
40996;DHT22;26723;57.478;12.066;2022-07-17T07:04:03;20.70;99.90
40996;DHT22;26723;57.478;12.066;2022-07-17T07:07:13;20.80;99.90
40996;DHT22;26723;57.478;12.066;2022-07-17T07:10:24;20.80;99.90
40996;DHT22;26723;57.478;12.066;2022-07-17T07:13:32;20.70;99.90
40996;DHT22;26723;57.478;12.066;2022-07-17T07:16:40;20.60;99.90
40996;DHT22;26723;57.478;12.066;2022-07-17T07:19:49;20.60;99.90
40996;DHT22;26723;57.478;12.066;2022-07-17T07:22:58;20.50;99.90
40996;DHT22;26723;57.478;12.066;2022-07-17T07:26:13;20.70;99.90
40996;DHT22;26723;57.478;12.066;2022-07-17T07:29:21;21.00;99.90
40996;DHT22;26723;57.478;12.066;2022-07-17T07:32:29;21.30;99.90
40996;DHT22;26723;57.478;12.066;2022-07-17T07:35:37;21.60;99.90
40996;DHT22;26723;57.478;12.066;2022-07-17T07:38:47;22.10;99.90
40996;DHT22;26723;57.478;12.066;2022-07-17T07:41:55;22.20;99.90
40996;DHT22;26723;57.478;12.066;2022-07-17T07:45:05;22.70;99.90
40996;DHT22;26723;57.478;12.066;2022-07-17T07:48:13;23.50;99.90
40996;DHT22;26723;57.478;12.066;2022-07-17T07:51:21;24.40;99.90
40996;DHT22;26723;57.478;12.066;2022-07-17T07:54:52;24.20;99.90
40996;DHT22;26723;57.478;12.066;2022-07-17T07:58:05;23.60;99.90
40996;DHT22;26723;57.478;12.066;2022-07-17T08:01:13;23.00;99.90
40996;DHT22;26723;57.478;12.066;2022-07-17T08:04:22;22.70;99.90
40996;DHT22;26723;57.478;12.066;2022-07-17T08:07:30;22.30;99.90
40996;DHT22;26723;57.478;12.066;2022-07-17T08:10:40;22.30;99.90
40996;DHT22;26723;57.478;12.066;2022-07-17T08:13:48;22.30;99.90
40996;DHT22;26723;57.478;12.066;2022-07-17T08:16:56;22.50;99.90
40996;DHT22;26723;57.478;12.066;2022-07-17T08:20:05;23.00;99.90
40996;DHT22;26723;57.478;12.066;2022-07-17T08:23:20;24.60;99.90
40996;DHT22;26723;57.478;12.066;2022-07-17T08:26:30;25.30;99.90
40996;DHT22;26723;57.478;12.066;2022-07-17T08:29:38;25.30;99.90
40996;DHT22;26723;57.478;12.066;2022-07-17T08:33:07;25.00;99.90
40996;DHT22;26723;57.478;12.066;2022-07-17T08:36:16;25.40;99.90
40996;DHT22;26723;57.478;12.066;2022-07-17T08:39:24;26.00;99.90
40996;DHT22;26723;57.478;12.066;2022-07-17T08:42:34;25.70;99.90
40996;DHT22;26723;57.478;12.066;2022-07-17T08:45:49;25.50;99.90
40996;DHT22;26723;57.478;12.066;2022-07-17T08:48:59;25.80;99.90
40996;DHT22;26723;57.478;12.066;2022-07-17T08:52:07;25.50;99.90
40996;DHT22;26723;57.478;12.066;2022-07-17T08:55:17;25.40;99.90
40996;DHT22;26723;57.478;12.066;2022-07-17T08:58:26;24.80;99.90
40996;DHT22;26723;57.478;12.066;2022-07-17T09:01:35;25.00;99.90
40996;DHT22;26723;57.478;12.066;2022-07-17T09:04:52;25.90;99.90
40996;DHT22;26723;57.478;12.066;2022-07-17T09:08:02;27.10;99.90
40996;DHT22;26723;57.478;12.066;2022-07-17T09:11:10;26.50;99.90
40996;DHT22;26723;57.478;12.066;2022-07-17T09:14:21;26.70;99.90
40996;DHT22;26723;57.478;12.066;2022-07-17T09:17:29;26.80;99.90
40996;DHT22;26723;57.478;12.066;2022-07-17T09:20:43;26.50;99.90
40996;DHT22;26723;57.478;12.066;2022-07-17T09:23:59;26.50;99.90
40996;DHT22;26723;57.478;12.066;2022-07-17T09:27:08;26.50;99.90
40996;DHT22;26723;57.478;12.066;2022-07-17T09:30:18;25.80;99.90
40996;DHT22;26723;57.478;12.066;2022-07-17T09:33:27;25.40;99.90
40996;DHT22;26723;57.478;12.066;2022-07-17T09:36:35;25.20;99.90
40996;DHT22;26723;57.478;12.066;2022-07-17T09:39:44;25.40;99.90
40996;DHT22;26723;57.478;12.066;2022-07-17T09:42:55;25.70;99.90
40996;DHT22;26723;57.478;12.066;2022-07-17T09:46:05;26.20;99.90
40996;DHT22;26723;57.478;12.066;2022-07-17T09:49:15;26.90;99.90
40996;DHT22;26723;57.478;12.066;2022-07-17T09:52:25;26.50;99.90
40996;DHT22;26723;57.478;12.066;2022-07-17T09:55:33;26.30;99.90
40996;DHT22;26723;57.478;12.066;2022-07-17T09:58:55;26.10;99.90
40996;DHT22;26723;57.478;12.066;2022-07-17T10:02:06;25.70;99.90
40996;DHT22;26723;57.478;12.066;2022-07-17T10:05:15;25.90;99.90
40996;DHT22;26723;57.478;12.066;2022-07-17T10:08:24;25.90;99.90
40996;DHT22;26723;57.478;12.066;2022-07-17T10:11:34;25.90;99.90
40996;DHT22;26723;57.478;12.066;2022-07-17T10:14:53;25.40;99.90
40996;DHT22;26723;57.478;12.066;2022-07-17T10:18:06;25.00;99.90
40996;DHT22;26723;57.478;12.066;2022-07-17T10:21:17;24.80;99.90
40996;DHT22;26723;57.478;12.066;2022-07-17T10:24:25;24.80;99.90
40996;DHT22;26723;57.478;12.066;2022-07-17T10:27:36;24.80;99.90
40996;DHT22;26723;57.478;12.066;2022-07-17T10:30:44;24.40;99.90
40996;DHT22;26723;57.478;12.066;2022-07-17T10:33:58;24.30;99.90
40996;DHT22;26723;57.478;12.066;2022-07-17T10:37:23;24.90;99.90
40996;DHT22;26723;57.478;12.066;2022-07-17T10:40:32;24.40;99.90
40996;DHT22;26723;57.478;12.066;2022-07-17T10:43:43;23.90;99.90
40996;DHT22;26723;57.478;12.066;2022-07-17T10:46:52;23.70;99.90
40996;DHT22;26723;57.478;12.066;2022-07-17T10:50:04;23.90;99.90
40996;DHT22;26723;57.478;12.066;2022-07-17T10:53:15;24.30;99.90
40996;DHT22;26723;57.478;12.066;2022-07-17T10:56:31;24.70;99.90
40996;DHT22;26723;57.478;12.066;2022-07-17T10:59:41;24.60;99.90
40996;DHT22;26723;57.478;12.066;2022-07-17T11:02:50;24.00;99.90
40996;DHT22;26723;57.478;12.066;2022-07-17T11:06:14;23.80;99.90
40996;DHT22;26723;57.478;12.066;2022-07-17T11:09:23;24.30;99.90
40996;DHT22;26723;57.478;12.066;2022-07-17T11:12:31;24.50;99.90
40996;DHT22;26723;57.478;12.066;2022-07-17T11:15:42;23.80;99.90
40996;DHT22;26723;57.478;12.066;2022-07-17T11:18:50;23.90;99.90
40996;DHT22;26723;57.478;12.066;2022-07-17T11:22:02;23.50;99.90
40996;DHT22;26723;57.478;12.066;2022-07-17T11:25:10;23.50;99.90
40996;DHT22;26723;57.478;12.066;2022-07-17T11:28:30;23.20;99.90
40996;DHT22;26723;57.478;12.066;2022-07-17T11:31:38;23.00;99.90
40996;DHT22;26723;57.478;12.066;2022-07-17T11:34:47;22.80;99.90
40996;DHT22;26723;57.478;12.066;2022-07-17T11:37:57;22.70;99.90
40996;DHT22;26723;57.478;12.066;2022-07-17T11:41:05;22.40;99.90
40996;DHT22;26723;57.478;12.066;2022-07-17T11:44:16;22.60;99.90
40996;DHT22;26723;57.478;12.066;2022-07-17T11:47:26;22.60;99.90
40996;DHT22;26723;57.478;12.066;2022-07-17T11:50:35;22.70;99.90
40996;DHT22;26723;57.478;12.066;2022-07-17T11:53:46;22.80;99.90
40996;DHT22;26723;57.478;12.066;2022-07-17T11:56:58;22.60;99.90
40996;DHT22;26723;57.478;12.066;2022-07-17T12:00:11;22.30;99.90
40996;DHT22;26723;57.478;12.066;2022-07-17T12:03:25;22.10;99.90
40996;DHT22;26723;57.478;12.066;2022-07-17T12:06:33;22.30;99.90
40996;DHT22;26723;57.478;12.066;2022-07-17T12:09:43;22.10;99.90
40996;DHT22;26723;57.478;12.066;2022-07-17T12:12:55;22.10;99.90
40996;DHT22;26723;57.478;12.066;2022-07-17T12:16:18;22.00;99.90
40996;DHT22;26723;57.478;12.066;2022-07-17T12:19:27;21.90;99.90
40996;DHT22;26723;57.478;12.066;2022-07-17T12:22:42;21.80;99.90
40996;DHT22;26723;57.478;12.066;2022-07-17T12:26:03;21.90;99.90
40996;DHT22;26723;57.478;12.066;2022-07-17T12:29:11;22.00;99.90
40996;DHT22;26723;57.478;12.066;2022-07-17T12:32:19;21.90;99.90
40996;DHT22;26723;57.478;12.066;2022-07-17T12:35:28;21.70;99.90
40996;DHT22;26723;57.478;12.066;2022-07-17T12:38:37;21.70;99.90
40996;DHT22;26723;57.478;12.066;2022-07-17T12:41:46;21.70;99.90
40996;DHT22;26723;57.478;12.066;2022-07-17T12:44:55;21.40;99.90
40996;DHT22;26723;57.478;12.066;2022-07-17T12:48:03;21.50;99.90
40996;DHT22;26723;57.478;12.066;2022-07-17T12:51:12;21.40;99.90
40996;DHT22;26723;57.478;12.066;2022-07-17T12:54:21;21.50;99.90
40996;DHT22;26723;57.478;12.066;2022-07-17T12:57:31;21.60;99.90
40996;DHT22;26723;57.478;12.066;2022-07-17T13:00:40;21.70;99.90
40996;DHT22;26723;57.478;12.066;2022-07-17T13:03:48;21.60;99.90
40996;DHT22;26723;57.478;12.066;2022-07-17T13:06:56;21.60;99.90
40996;DHT22;26723;57.478;12.066;2022-07-17T13:10:06;21.50;99.90
40996;DHT22;26723;57.478;12.066;2022-07-17T13:13:15;21.70;99.90
40996;DHT22;26723;57.478;12.066;2022-07-17T13:16:24;21.50;99.90
40996;DHT22;26723;57.478;12.066;2022-07-17T13:19:33;21.30;99.90
40996;DHT22;26723;57.478;12.066;2022-07-17T13:22:41;21.10;99.90
40996;DHT22;26723;57.478;12.066;2022-07-17T13:25:49;21.00;99.90
40996;DHT22;26723;57.478;12.066;2022-07-17T13:28:58;20.90;99.90
40996;DHT22;26723;57.478;12.066;2022-07-17T13:32:07;20.70;99.90
40996;DHT22;26723;57.478;12.066;2022-07-17T13:35:16;20.40;99.90
40996;DHT22;26723;57.478;12.066;2022-07-17T13:38:25;20.40;99.90
40996;DHT22;26723;57.478;12.066;2022-07-17T13:41:33;20.60;99.90
40996;DHT22;26723;57.478;12.066;2022-07-17T13:44:43;20.80;99.90
40996;DHT22;26723;57.478;12.066;2022-07-17T13:47:51;20.90;99.90
40996;DHT22;26723;57.478;12.066;2022-07-17T13:51:01;21.20;99.90
40996;DHT22;26723;57.478;12.066;2022-07-17T13:54:11;21.20;99.90
40996;DHT22;26723;57.478;12.066;2022-07-17T13:57:19;21.00;99.90
40996;DHT22;26723;57.478;12.066;2022-07-17T14:00:29;20.90;99.90
40996;DHT22;26723;57.478;12.066;2022-07-17T14:03:37;20.80;99.90
40996;DHT22;26723;57.478;12.066;2022-07-17T14:06:45;20.70;99.90
40996;DHT22;26723;57.478;12.066;2022-07-17T14:09:53;20.90;99.90
40996;DHT22;26723;57.478;12.066;2022-07-17T14:13:02;21.00;99.90
40996;DHT22;26723;57.478;12.066;2022-07-17T14:16:11;21.00;99.90
40996;DHT22;26723;57.478;12.066;2022-07-17T14:19:19;21.10;99.90
40996;DHT22;26723;57.478;12.066;2022-07-17T14:22:28;21.20;99.90
40996;DHT22;26723;57.478;12.066;2022-07-17T14:25:36;21.30;99.90
40996;DHT22;26723;57.478;12.066;2022-07-17T14:28:49;21.30;99.90
40996;DHT22;26723;57.478;12.066;2022-07-17T14:31:59;21.30;99.90
40996;DHT22;26723;57.478;12.066;2022-07-17T14:35:08;21.20;99.90
40996;DHT22;26723;57.478;12.066;2022-07-17T14:38:16;21.10;99.90
40996;DHT22;26723;57.478;12.066;2022-07-17T14:41:25;21.20;99.90
40996;DHT22;26723;57.478;12.066;2022-07-17T14:44:34;21.10;99.90
40996;DHT22;26723;57.478;12.066;2022-07-17T14:47:43;21.40;99.90
40996;DHT22;26723;57.478;12.066;2022-07-17T14:50:52;21.60;99.90
40996;DHT22;26723;57.478;12.066;2022-07-17T14:54:00;21.20;99.90
40996;DHT22;26723;57.478;12.066;2022-07-17T14:57:09;20.90;99.90
40996;DHT22;26723;57.478;12.066;2022-07-17T15:00:17;20.90;99.90
40996;DHT22;26723;57.478;12.066;2022-07-17T15:03:27;20.90;99.90
40996;DHT22;26723;57.478;12.066;2022-07-17T15:06:38;21.10;99.90
40996;DHT22;26723;57.478;12.066;2022-07-17T15:09:47;20.90;99.90
40996;DHT22;26723;57.478;12.066;2022-07-17T15:12:55;20.90;99.90
40996;DHT22;26723;57.478;12.066;2022-07-17T15:16:04;20.80;99.90
40996;DHT22;26723;57.478;12.066;2022-07-17T15:19:13;20.70;99.90
40996;DHT22;26723;57.478;12.066;2022-07-17T15:22:22;20.50;99.90
40996;DHT22;26723;57.478;12.066;2022-07-17T15:25:30;20.50;99.90
40996;DHT22;26723;57.478;12.066;2022-07-17T15:28:39;20.30;99.90
40996;DHT22;26723;57.478;12.066;2022-07-17T15:31:47;20.10;99.90
40996;DHT22;26723;57.478;12.066;2022-07-17T15:34:56;20.20;99.90
40996;DHT22;26723;57.478;12.066;2022-07-17T15:38:04;20.20;99.90
40996;DHT22;26723;57.478;12.066;2022-07-17T15:41:13;20.40;99.90
40996;DHT22;26723;57.478;12.066;2022-07-17T15:44:21;20.30;99.90
40996;DHT22;26723;57.478;12.066;2022-07-17T15:47:30;20.40;99.90
40996;DHT22;26723;57.478;12.066;2022-07-17T15:50:39;20.50;99.90
40996;DHT22;26723;57.478;12.066;2022-07-17T15:53:48;20.60;99.90
40996;DHT22;26723;57.478;12.066;2022-07-17T15:56:56;20.60;99.90
40996;DHT22;26723;57.478;12.066;2022-07-17T16:00:07;20.60;99.90
40996;DHT22;26723;57.478;12.066;2022-07-17T16:03:19;20.80;99.90
40996;DHT22;26723;57.478;12.066;2022-07-17T16:06:28;20.70;99.90
40996;DHT22;26723;57.478;12.066;2022-07-17T16:09:37;20.80;99.90
40996;DHT22;26723;57.478;12.066;2022-07-17T16:12:47;20.70;99.90
40996;DHT22;26723;57.478;12.066;2022-07-17T16:15:55;20.60;99.90
40996;DHT22;26723;57.478;12.066;2022-07-17T16:19:03;20.60;99.90
40996;DHT22;26723;57.478;12.066;2022-07-17T16:22:13;20.60;99.90
40996;DHT22;26723;57.478;12.066;2022-07-17T16:25:21;20.60;99.90
40996;DHT22;26723;57.478;12.066;2022-07-17T16:28:29;20.60;99.90
40996;DHT22;26723;57.478;12.066;2022-07-17T16:31:38;20.50;99.90
40996;DHT22;26723;57.478;12.066;2022-07-17T16:34:46;20.50;99.90
40996;DHT22;26723;57.478;12.066;2022-07-17T16:37:55;20.50;99.90
40996;DHT22;26723;57.478;12.066;2022-07-17T16:41:04;20.30;99.90
40996;DHT22;26723;57.478;12.066;2022-07-17T16:44:13;20.40;99.90
40996;DHT22;26723;57.478;12.066;2022-07-17T16:47:21;20.40;99.90
40996;DHT22;26723;57.478;12.066;2022-07-17T16:50:29;20.40;99.90
40996;DHT22;26723;57.478;12.066;2022-07-17T16:53:39;20.40;99.90
40996;DHT22;26723;57.478;12.066;2022-07-17T16:56:47;20.20;99.90
40996;DHT22;26723;57.478;12.066;2022-07-17T16:59:55;20.20;99.90
40996;DHT22;26723;57.478;12.066;2022-07-17T17:03:04;20.10;99.90
40996;DHT22;26723;57.478;12.066;2022-07-17T17:06:13;20.20;99.90
40996;DHT22;26723;57.478;12.066;2022-07-17T17:09:24;20.20;99.90
40996;DHT22;26723;57.478;12.066;2022-07-17T17:12:33;20.10;99.90
40996;DHT22;26723;57.478;12.066;2022-07-17T17:15:41;19.90;99.90
40996;DHT22;26723;57.478;12.066;2022-07-17T17:18:49;19.70;99.90
40996;DHT22;26723;57.478;12.066;2022-07-17T17:21:57;19.80;99.90
40996;DHT22;26723;57.478;12.066;2022-07-17T17:25:08;19.70;99.90
40996;DHT22;26723;57.478;12.066;2022-07-17T17:28:16;19.80;99.90
40996;DHT22;26723;57.478;12.066;2022-07-17T17:31:24;19.70;99.90
40996;DHT22;26723;57.478;12.066;2022-07-17T17:34:33;19.70;99.90
40996;DHT22;26723;57.478;12.066;2022-07-17T17:37:41;19.70;99.90
40996;DHT22;26723;57.478;12.066;2022-07-17T17:40:50;19.80;99.90
40996;DHT22;26723;57.478;12.066;2022-07-17T17:44:01;19.80;99.90
40996;DHT22;26723;57.478;12.066;2022-07-17T17:47:09;19.60;99.90
40996;DHT22;26723;57.478;12.066;2022-07-17T17:50:17;19.40;99.90
40996;DHT22;26723;57.478;12.066;2022-07-17T17:53:26;19.40;99.90
40996;DHT22;26723;57.478;12.066;2022-07-17T17:56:35;19.30;99.90
40996;DHT22;26723;57.478;12.066;2022-07-17T17:59:43;19.40;99.90
40996;DHT22;26723;57.478;12.066;2022-07-17T18:02:52;19.20;99.90
40996;DHT22;26723;57.478;12.066;2022-07-17T18:06:00;19.30;99.90
40996;DHT22;26723;57.478;12.066;2022-07-17T18:09:10;19.30;99.90
40996;DHT22;26723;57.478;12.066;2022-07-17T18:12:20;19.30;99.90
40996;DHT22;26723;57.478;12.066;2022-07-17T18:15:28;19.20;99.90
40996;DHT22;26723;57.478;12.066;2022-07-17T18:18:37;19.20;99.90
40996;DHT22;26723;57.478;12.066;2022-07-17T18:21:45;19.10;99.90
40996;DHT22;26723;57.478;12.066;2022-07-17T18:24:53;19.00;99.90
40996;DHT22;26723;57.478;12.066;2022-07-17T18:28:06;19.00;99.90
40996;DHT22;26723;57.478;12.066;2022-07-17T18:31:15;19.00;99.90
40996;DHT22;26723;57.478;12.066;2022-07-17T18:34:23;18.90;99.90
40996;DHT22;26723;57.478;12.066;2022-07-17T18:37:31;18.80;99.90
40996;DHT22;26723;57.478;12.066;2022-07-17T18:40:39;18.80;99.90
40996;DHT22;26723;57.478;12.066;2022-07-17T18:43:49;18.80;99.90
40996;DHT22;26723;57.478;12.066;2022-07-17T18:46:57;18.70;99.90
40996;DHT22;26723;57.478;12.066;2022-07-17T18:50:06;18.70;99.90
40996;DHT22;26723;57.478;12.066;2022-07-17T18:53:15;18.70;99.90
40996;DHT22;26723;57.478;12.066;2022-07-17T18:56:24;18.70;99.90
40996;DHT22;26723;57.478;12.066;2022-07-17T18:59:34;18.60;99.90
40996;DHT22;26723;57.478;12.066;2022-07-17T19:02:52;18.70;99.90
40996;DHT22;26723;57.478;12.066;2022-07-17T19:06:01;18.70;99.90
40996;DHT22;26723;57.478;12.066;2022-07-17T19:09:09;18.60;99.90
40996;DHT22;26723;57.478;12.066;2022-07-17T19:12:17;18.60;99.90
40996;DHT22;26723;57.478;12.066;2022-07-17T19:15:27;18.50;99.90
40996;DHT22;26723;57.478;12.066;2022-07-17T19:18:36;18.40;99.90
40996;DHT22;26723;57.478;12.066;2022-07-17T19:21:44;18.30;99.90
40996;DHT22;26723;57.478;12.066;2022-07-17T19:24:52;18.30;99.90
40996;DHT22;26723;57.478;12.066;2022-07-17T19:28:01;18.20;99.90
40996;DHT22;26723;57.478;12.066;2022-07-17T19:31:11;18.10;99.90
40996;DHT22;26723;57.478;12.066;2022-07-17T19:34:21;18.10;99.90
40996;DHT22;26723;57.478;12.066;2022-07-17T19:37:29;18.00;99.90